Fuyang, China
Current Conditions -  °F | °C
As of 11:00 AM on Wednesday 22 Oct 2014 (Local Time) from ZSOF Reporting Station
Haze Haze  
Wind Chill: 64°   Ceiling: 2600
Heat Index: 64°   Visibility: 1.8mi
Dew Point: 59°   Wind: 2mph
Humidity: 83%   Direction: NA
Pressure: 30.27"   Gusts: NA
Location:  32.9°N, 115.82°E
Report Text: ZSOF 220300Z VRB01MPS 3000 BR FEW010 BKN026 18/15 Q1025 NOSIG
Loading
Personal Weather Stations






























Interactive Weather Map
Tropical Storm Tracking
New forecast layout! Learn more

10-Day Weather Forecast

Advertisements
Track Severe Weather on mobile